Terminal Aerodrome Forecast
Issued by NWS

Home | Current Version | Previous Version | Text Only | Print | Product List | Glossary On
Versions: 1 2 3 4 5 6 7 8 9 10 11 12 13 14
000
FTUS43 KJKL 300308 AAA
TAFSME
TAF AMD
KSME 300308Z 3003/3024 22006KT P6SM OVC060
     FM300700 VRB04KT 4SM -SHRA BR SCT030 OVC050
     FM300900 VRB04KT P6SM BKN050
     FM301300 28008KT P6SM FEW060 SCT200=

USA.gov is the U.S. government's official web portal to all federal, state and local government web resources and services.